Time;durP1;ratioP1;P1;durP2;ratioP2;P2;SDS_P1;SDS_P2;PMS_P1;PMS_P2;Temp;Humidity;BMP_temperature;BMP_pressure;BME280_temperature;BME280_humidity;BME280_pressure;Samples;Min_cycle;Max_cycle;Signal;HPM_P1;HPM_P2
2021/08/23 00:02:21;;;;;;;;;;;;;;;14.11;92.96;96928.56;5093798;28;19976;-77
2021/08/23 00:04:47;;;;;;;;;;;;;;;14.12;92.80;96921.44;5093888;28;19992;-78
2021/08/23 00:07:13;;;;;;;;;;;;;;;14.14;92.70;96922.81;5093814;28;20045;-77
2021/08/23 00:09:39;;;;;;;;;;;;;;;14.16;92.77;96917.31;5092606;28;19985;-77
2021/08/23 00:12:05;;;;;;;;;;;;;;;14.16;92.92;96912.84;5093442;28;20345;-76
2021/08/23 00:14:31;;;;;;;;;;;;;;;14.18;93.04;96908.13;5094008;28;20438;-76
2021/08/23 00:16:57;;;;;;;;;;;;;;;14.20;93.56;96921.09;5093582;28;20000;-76
2021/08/23 00:19:22;;;;;;;;;;;;;;;14.15;93.00;96910.41;5093822;28;20335;-76
2021/08/23 00:22:00;;;;;;;;;;;;;;;14.12;93.63;96914.31;5095745;28;19946;-77
2021/08/23 00:24:26;;;;;;;;;;;;;;;14.10;93.64;96919.03;5097364;28;19968;-77
2021/08/23 00:26:54;;;;;;;;;;;;;;;14.12;93.49;96914.31;5097733;28;19951;-76
2021/08/23 00:29:20;;;;;;;;;;;;;;;14.13;93.80;96913.31;5097366;28;19946;-76
2021/08/23 00:31:46;;;;;;;;;;;;;;;14.15;93.84;96913.06;5097467;28;19980;-77
2021/08/23 00:34:13;;;;;;;;;;;;;;;14.16;93.90;96906.75;5095744;28;20318;-78
2021/08/23 00:36:39;;;;;;;;;;;;;;;14.19;93.57;96903.66;5097227;28;19956;-79
2021/08/23 00:39:06;;;;;;;;;;;;;;;14.20;93.66;96905.28;5097075;28;19956;-79
2021/08/23 00:41:32;;;;;;;;;;;;;;;14.20;93.28;96900.78;5097505;28;20321;-78
2021/08/23 00:43:58;;;;;;;;;;;;;;;14.23;93.19;96901.38;5097174;28;19967;-78
2021/08/23 00:46:24;;;;;;;;;;;;;;;14.21;93.27;96893.69;5097299;28;20336;-76
2021/08/23 00:48:51;;;;;;;;;;;;;;;14.25;93.20;96900.09;5096700;28;20305;-77
2021/08/23 00:51:18;;;;;;;;;;;;;;;14.26;93.15;96898.25;5096985;28;19985;-76
2021/08/23 00:53:43;;;;;;;;;;;;;;;14.27;93.31;96899.88;5096807;28;19968;-76
2021/08/23 00:56:10;;;;;;;;;;;;;;;14.28;93.30;96901.47;5097071;28;19998;-77
2021/08/23 00:58:36;;;;;;;;;;;;;;;14.28;93.33;96902.28;5096700;28;19954;-76
2021/08/23 01:01:06;;;;;;;;;;;;;;;14.30;93.85;96902.03;5096925;28;20410;-76
2021/08/23 01:03:37;;;;;;;;;;;;;;;14.33;94.09;96904.25;5096949;28;19974;-77
2021/08/23 01:06:08;;;;;;;;;;;;;;;14.34;93.38;96905.81;5097321;28;19958;-77
2021/08/23 01:08:39;;;;;;;;;;;;;;;14.34;92.94;96913.75;5096866;28;19946;-77
2021/08/23 01:11:07;;;;;;;;;;;;;;;14.34;93.01;96905.81;5097028;28;19949;-76
2021/08/23 01:13:34;;;;;;;;;;;;;;;14.35;92.96;96913.53;5096796;28;19962;-76
2021/08/23 01:16:00;;;;;;;;;;;;;;;14.34;93.21;96911.94;5096516;28;19959;-77
2021/08/23 01:18:26;;;;;;;;;;;;;;;14.33;93.19;96915.59;5096786;28;19954;-76
2021/08/23 01:20:52;;;;;;;;;;;;;;;14.33;93.59;96910.31;5096236;28;19959;-76
2021/08/23 01:23:19;;;;;;;;;;;;;;;14.33;92.87;96906.88;5096147;28;19969;-76
2021/08/23 01:25:46;;;;;;;;;;;;;;;14.33;93.50;96906.88;5095939;28;19953;-76
2021/08/23 01:28:20;;;;;;;;;;;;;;;14.33;93.10;96906.88;5095318;28;20014;-76
2021/08/23 01:31:06;;;;;;;;;;;;;;;14.33;93.13;96906.88;5096178;28;19981;-76
2021/08/23 01:33:32;;;;;;;;;;;;;;;14.31;92.62;96907.09;5095428;28;20417;-77
2021/08/23 01:35:59;;;;;;;;;;;;;;;14.31;92.66;96908.94;5096676;28;19959;-76
2021/08/23 01:38:26;;;;;;;;;;;;;;;14.30;93.00;96910.78;5096110;28;19965;-76
2021/08/23 01:41:01;;;;;;;;;;;;;;;14.30;93.06;96904.69;5096102;28;19955;-77
2021/08/23 01:43:27;;;;;;;;;;;;;;;14.30;93.42;96902.03;5095784;28;20423;-78
2021/08/23 01:45:54;;;;;;;;;;;;;;;14.29;93.43;96898.63;5095392;28;19974;-76
2021/08/23 01:48:20;;;;;;;;;;;;;;;14.30;93.39;96910.78;5096044;28;19953;-77
2021/08/23 01:50:46;;;;;;;;;;;;;;;14.30;93.12;96902.88;5095965;28;19976;-77
2021/08/23 01:53:19;;;;;;;;;;;;;;;14.30;93.27;96905.50;5096012;28;19963;-77
2021/08/23 01:55:45;;;;;;;;;;;;;;;14.30;93.44;96905.50;5095641;28;19953;-76
2021/08/23 01:58:11;;;;;;;;;;;;;;;14.31;93.35;96903.66;5096069;28;19944;-77
2021/08/23 02:00:37;;;;;;;;;;;;;;;14.31;93.10;96904.47;5095955;28;19978;-76
2021/08/23 02:03:03;;;;;;;;;;;;;;;14.33;93.07;96901.59;5095806;28;19973;-76
2021/08/23 02:05:30;;;;;;;;;;;;;;;14.33;93.04;96898.97;5094387;28;20346;-76
2021/08/23 02:07:56;;;;;;;;;;;;;;;14.33;93.41;96902.41;5095568;28;19964;-77
2021/08/23 02:10:22;;;;;;;;;;;;;;;14.33;93.27;96902.41;5094990;28;19945;-76
2021/08/23 02:12:48;;;;;;;;;;;;;;;14.33;93.17;96899.75;5095590;28;19953;-76
2021/08/23 02:15:14;;;;;;;;;;;;;;;14.33;93.03;96904.25;5095637;28;19961;-77
2021/08/23 02:17:40;;;;;;;;;;;;;;;14.32;93.02;96892.91;5086604;28;20000;-77
2021/08/23 02:20:07;;;;;;;;;;;;;;;14.33;93.19;96901.59;5094970;28;20488;-76
2021/08/23 02:22:33;;;;;;;;;;;;;;;14.36;95.59;96893.22;5095170;28;19987;-76
2021/08/23 02:24:59;;;;;;;;;;;;;;;14.38;93.54;96897.25;5094573;28;20412;-77
2021/08/23 02:27:25;;;;;;;;;;;;;;;14.41;93.08;96903.91;5095335;28;20054;-77
2021/08/23 02:29:51;;;;;;;;;;;;;;;14.39;92.85;96898.84;5092835;28;19960;-77
2021/08/23 02:32:17;;;;;;;;;;;;;;;14.39;92.83;96898.84;5095327;28;19958;-76
2021/08/23 02:34:43;;;;;;;;;;;;;;;14.38;92.84;96896.44;5095357;28;19959;-76
2021/08/23 02:37:09;;;;;;;;;;;;;;;14.38;92.84;96899.06;5094503;28;19967;-76
2021/08/23 02:39:35;;;;;;;;;;;;;;;14.37;92.73;96902.75;5095292;28;20018;-76
2021/08/23 02:42:01;;;;;;;;;;;;;;;14.35;92.61;96895.06;5094682;28;19996;-77
2021/08/23 02:44:26;;;;;;;;;;;;;;;14.35;92.70;96897.69;5094627;28;20004;-76
2021/08/23 02:46:52;;;;;;;;;;;;;;;14.35;92.75;96894.25;5094059;28;19961;-76
2021/08/23 02:49:18;;;;;;;;;;;;;;;14.34;93.00;96897.91;5094887;28;20038;-77
2021/08/23 02:51:44;;;;;;;;;;;;;;;14.33;92.44;96897.13;5094933;28;19966;-77
2021/08/23 02:54:11;;;;;;;;;;;;;;;14.33;92.73;96899.75;5094944;28;19954;-77
2021/08/23 02:56:37;;;;;;;;;;;;;;;14.33;93.18;96905.03;5094461;28;19949;-77
2021/08/23 02:59:03;;;;;;;;;;;;;;;14.32;92.38;96902.63;5095057;28;20314;-77
2021/08/23 03:01:29;;;;;;;;;;;;;;;14.31;92.07;96911.59;5094789;28;19962;-77
2021/08/23 03:03:55;;;;;;;;;;;;;;;14.31;92.48;96904.47;5093401;28;20450;-76
2021/08/23 03:06:21;;;;;;;;;;;;;;;14.31;92.26;96893.13;5094457;28;19954;-77
2021/08/23 03:08:47;;;;;;;;;;;;;;;14.30;92.22;96904.69;5094487;28;20467;-77
2021/08/23 03:11:13;;;;;;;;;;;;;;;14.31;92.46;96908.94;5094703;28;20015;-77
2021/08/23 03:13:40;;;;;;;;;;;;;;;14.30;92.99;96907.31;5094471;28;19952;-76
2021/08/23 03:16:07;;;;;;;;;;;;;;;14.28;92.24;96904.13;5094266;28;20321;-77
2021/08/23 03:18:33;;;;;;;;;;;;;;;14.27;92.45;96902.53;5094384;28;19954;-77
2021/08/23 03:20:59;;;;;;;;;;;;;;;14.27;92.49;96902.53;5094131;28;19950;-77
2021/08/23 03:23:25;;;;;;;;;;;;;;;14.26;92.54;96895.63;5094408;28;19975;-76
2021/08/23 03:25:51;;;;;;;;;;;;;;;14.25;92.44;96896.66;5094027;28;19955;-76
2021/08/23 03:28:17;;;;;;;;;;;;;;;14.24;92.68;96893.22;5094141;28;20049;-75
2021/08/23 03:30:43;;;;;;;;;;;;;;;14.24;92.69;96889.78;5094134;28;20060;-76
2021/08/23 03:33:10;;;;;;;;;;;;;;;14.25;92.76;96896.66;5093184;28;20340;-76
2021/08/23 03:35:36;;;;;;;;;;;;;;;14.25;92.67;96891.41;5093907;28;19955;-76
2021/08/23 03:38:02;;;;;;;;;;;;;;;14.25;92.96;96894.03;5094104;28;20322;-75
2021/08/23 03:40:28;;;;;;;;;;;;;;;14.25;92.81;96888.75;5093733;28;19969;-76
2021/08/23 03:42:55;;;;;;;;;;;;;;;14.25;92.27;96886.91;5093901;28;20369;-75
2021/08/23 03:45:21;;;;;;;;;;;;;;;14.24;92.46;96887.13;5094200;28;19950;-76
2021/08/23 03:47:47;;;;;;;;;;;;;;;14.23;92.19;96894.25;5093871;28;20416;-75
2021/08/23 03:50:13;;;;;;;;;;;;;;;14.21;92.32;96886.59;5092683;28;19953;-77
2021/08/23 03:52:38;;;;;;;;;;;;;;;14.19;92.30;96891.28;5093483;28;20042;-76
2021/08/23 03:55:05;;;;;;;;;;;;;;;14.18;92.20;96894.16;5093298;28;20019;-77
2021/08/23 03:57:33;;;;;;;;;;;;;;;14.16;92.41;96891.72;5091993;28;19955;-76
2021/08/23 03:59:59;;;;;;;;;;;;;;;14.16;92.66;96897.00;5093381;28;19958;-77
2021/08/23 04:02:25;;;;;;;;;;;;;;;14.12;91.79;96895.06;5093905;28;19972;-76
2021/08/23 04:04:51;;;;;;;;;;;;;;;14.13;92.82;96901.94;5093637;28;19976;-76
2021/08/23 04:07:16;;;;;;;;;;;;;;;14.13;92.70;96902.75;5093799;28;20014;-77
2021/08/23 04:09:42;;;;;;;;;;;;;;;14.14;92.91;96896.44;5093689;28;19953;-76
2021/08/23 04:12:08;;;;;;;;;;;;;;;14.14;92.55;96907.00;5093120;28;20391;-76
2021/08/23 04:14:34;;;;;;;;;;;;;;;14.16;92.71;96899.66;5093350;28;20099;-76
2021/08/23 04:17:00;;;;;;;;;;;;;;;14.15;92.79;96895.41;5092909;28;19966;-77
2021/08/23 04:19:26;;;;;;;;;;;;;;;14.18;94.79;96894.16;5093605;28;19999;-75
2021/08/23 04:21:52;;;;;;;;;;;;;;;14.32;99.63;96897.34;5092678;28;20050;-78
2021/08/23 04:24:18;;;;;;;;;;;;;;;14.48;100.00;96899.28;5093669;28;19975;-75
2021/08/23 04:26:44;;;;;;;;;;;;;;;14.63;98.11;96895.41;5093320;28;20456;-75
2021/08/23 04:29:10;;;;;;;;;;;;;;;14.70;95.50;96890.78;5093431;28;20048;-75
2021/08/23 04:31:36;;;;;;;;;;;;;;;14.75;95.06;96898.81;5093166;28;20002;-75
2021/08/23 04:34:01;;;;;;;;;;;;;;;14.78;94.26;96893.88;5093212;28;19959;-76
2021/08/23 04:36:27;;;;;;;;;;;;;;;14.80;93.40;96891.81;5075561;28;19954;-76
2021/08/23 04:38:53;;;;;;;;;;;;;;;14.80;92.95;96899.75;5094171;28;19972;-75
2021/08/23 04:41:19;;;;;;;;;;;;;;;14.81;91.56;96901.34;5093621;28;19993;-76
2021/08/23 04:43:45;;;;;;;;;;;;;;;14.77;90.35;96908.09;5092750;28;20352;-74
2021/08/23 04:46:11;;;;;;;;;;;;;;;14.81;93.41;96905.81;5093150;28;19950;-77
2021/08/23 04:48:37;;;;;;;;;;;;;;;14.87;90.50;96910.16;5092622;28;20035;-76
2021/08/23 04:51:04;;;;;;;;;;;;;;;14.83;88.45;96909.03;5092786;28;19953;-75
2021/08/23 04:53:30;;;;;;;;;;;;;;;14.72;88.84;96925.66;5093715;28;19955;-75
2021/08/23 04:55:56;;;;;;;;;;;;;;;14.69;92.79;96919.03;5074503;28;20320;-75
2021/08/23 04:58:22;;;;;;;;;;;;;;;14.76;90.96;96926.81;5092908;28;19958;-75
2021/08/23 05:00:48;;;;;;;;;;;;;;;14.75;90.36;96922.59;5093279;28;19969;-75
2021/08/23 05:03:15;;;;;;;;;;;;;;;14.70;89.92;96923.28;5093358;28;19980;-75
2021/08/23 05:05:41;;;;;;;;;;;;;;;14.67;90.00;96930.84;5093110;28;20417;-75
2021/08/23 05:08:07;;;;;;;;;;;;;;;14.63;89.67;96930.50;5094492;28;19954;-76
2021/08/23 05:10:34;;;;;;;;;;;;;;;14.58;89.58;96917.22;5095802;28;19955;-77
2021/08/23 05:13:00;;;;;;;;;;;;;;;14.54;90.27;96919.47;5096696;28;19963;-76
2021/08/23 05:15:26;;;;;;;;;;;;;;;14.51;89.17;96925.22;5096555;28;19955;-76
2021/08/23 05:17:52;;;;;;;;;;;;;;;14.42;89.56;96916.03;5096537;28;19951;-76
2021/08/23 05:20:18;;;;;;;;;;;;;;;14.39;90.70;96909.41;5097053;28;19953;-76
2021/08/23 05:22:45;;;;;;;;;;;;;;;14.39;91.10;96914.66;5096377;28;19959;-75
2021/08/23 05:25:11;;;;;;;;;;;;;;;14.38;91.54;96913.09;5096266;28;19955;-77
2021/08/23 05:27:37;;;;;;;;;;;;;;;14.38;91.27;96921.00;5096518;28;19955;-75
2021/08/23 05:30:04;;;;;;;;;;;;;;;14.39;91.89;96916.50;5096164;28;19988;-77
2021/08/23 05:32:30;;;;;;;;;;;;;;;14.39;91.82;96919.16;5096649;28;19955;-77
2021/08/23 05:34:56;;;;;;;;;;;;;;;14.41;91.59;96917.09;5096368;28;20000;-76
2021/08/23 05:37:22;;;;;;;;;;;;;;;14.41;91.92;96925.81;5096025;28;19959;-78
2021/08/23 05:39:48;;;;;;;;;;;;;;;14.45;92.43;96926.16;5094980;28;20297;-77
2021/08/23 05:42:14;;;;;;;;;;;;;;;14.48;92.50;96927.53;5096244;28;19964;-76
2021/08/23 05:44:40;;;;;;;;;;;;;;;14.49;92.67;96935.22;5095834;28;19971;-77
2021/08/23 05:47:06;;;;;;;;;;;;;;;14.54;92.23;96931.88;5096195;28;19953;-77
2021/08/23 05:49:32;;;;;;;;;;;;;;;14.57;91.96;96931.44;5095470;28;19959;-77
2021/08/23 05:51:59;;;;;;;;;;;;;;;14.60;91.08;96929.16;5095899;28;19955;-77
2021/08/23 05:54:26;;;;;;;;;;;;;;;14.63;90.56;96927.06;5095982;28;19949;-78
2021/08/23 05:56:53;;;;;;;;;;;;;;;14.65;90.50;96928.44;5095745;28;20025;-77
2021/08/23 05:59:19;;;;;;;;;;;;;;;14.68;90.75;96935.09;5095611;28;20326;-78
2021/08/23 06:01:45;;;;;;;;;;;;;;;14.69;89.60;96932.22;5095788;28;20472;-77
2021/08/23 06:04:11;;;;;;;;;;;;;;;14.69;91.08;96923.50;5095958;28;19975;-77
2021/08/23 06:06:40;;;;;;;;;;;;;;;14.70;91.76;96928.56;5094583;28;19990;-77
2021/08/23 06:09:06;;;;;;;;;;;;;;;14.74;92.39;96928.88;5095602;28;19955;-77
2021/08/23 06:11:31;;;;;;;;;;;;;;;14.78;91.50;96932.66;5095675;28;19959;-77
2021/08/23 06:13:58;;;;;;;;;;;;;;;14.80;91.11;96922.69;5095369;28;20470;-76
2021/08/23 06:16:24;;;;;;;;;;;;;;;14.79;90.62;96929.81;5095611;28;19941;-76
2021/08/23 06:18:50;;;;;;;;;;;;;;;14.83;91.36;96924.88;5095537;28;19957;-76
2021/08/23 06:21:16;;;;;;;;;;;;;;;14.88;91.24;96916.25;5094594;28;19950;-76
2021/08/23 06:23:42;;;;;;;;;;;;;;;14.93;90.99;96918.97;5094997;28;20011;-76
2021/08/23 06:26:08;;;;;;;;;;;;;;;14.95;90.29;96919.53;5095259;28;20029;-76
2021/08/23 06:28:33;;;;;;;;;;;;;;;14.94;90.03;96918.75;5095220;28;20391;-76
2021/08/23 06:30:59;;;;;;;;;;;;;;;14.94;90.42;96923.22;5095107;28;19983;-75
2021/08/23 06:33:25;;;;;;;;;;;;;;;14.91;89.61;96921.88;5094985;28;19965;-76
2021/08/23 06:35:51;;;;;;;;;;;;;;;14.90;90.33;96917.59;5095293;28;19958;-76
2021/08/23 06:38:17;;;;;;;;;;;;;;;14.90;90.62;96922.88;5095166;28;19955;-76
2021/08/23 06:40:43;;;;;;;;;;;;;;;14.89;90.73;96923.94;5094861;28;19956;-76
2021/08/23 06:43:09;;;;;;;;;;;;;;;14.91;91.59;96921.03;5095019;28;20426;-76
2021/08/23 06:45:35;;;;;;;;;;;;;;;14.95;91.81;96917.72;5094986;28;20041;-76
2021/08/23 06:48:01;;;;;;;;;;;;;;;15.02;92.43;96914.94;5094225;28;20418;-76
2021/08/23 06:50:27;;;;;;;;;;;;;;;15.08;92.05;96914.00;5093423;28;19959;-76
2021/08/23 06:52:52;;;;;;;;;;;;;;;15.14;90.95;96922.81;5094911;28;19966;-76
2021/08/23 06:55:18;;;;;;;;;;;;;;;15.21;91.63;96919.00;5094878;28;20360;-76
2021/08/23 06:57:44;;;;;;;;;;;;;;;15.26;89.76;96923.56;5094663;28;19956;-76
2021/08/23 07:00:10;;;;;;;;;;;;;;;15.32;91.65;96927.91;5094751;28;19962;-76
2021/08/23 07:02:36;;;;;;;;;;;;;;;15.40;91.41;96930.19;5094580;28;19957;-76
2021/08/23 07:05:02;;;;;;;;;;;;;;;15.43;88.94;96919.16;5094354;28;19969;-76
2021/08/23 07:07:30;;;;;;;;;;;;;;;15.47;90.24;96922.13;5094091;28;19963;-76
2021/08/23 07:09:55;;;;;;;;;;;;;;;15.53;90.28;96923.81;5093069;28;19972;-76
2021/08/23 07:12:21;;;;;;;;;;;;;;;15.58;88.63;96920.44;5094257;28;20366;-76
2021/08/23 07:14:47;;;;;;;;;;;;;;;15.54;87.97;96914.84;5094266;28;20027;-76
2021/08/23 07:17:13;;;;;;;;;;;;;;;15.53;88.33;96921.16;5093880;28;19993;-76
2021/08/23 07:19:39;;;;;;;;;;;;;;;15.55;87.94;96927.00;5094785;28;20400;-76
2021/08/23 07:22:05;;;;;;;;;;;;;;;15.61;89.44;96923.44;5094179;28;19967;-76
2021/08/23 07:24:31;;;;;;;;;;;;;;;15.66;88.27;96921.91;5094097;28;19966;-76
2021/08/23 07:26:57;;;;;;;;;;;;;;;15.71;88.21;96924.66;5092853;28;19953;-76
2021/08/23 07:29:25;;;;;;;;;;;;;;;15.75;87.91;96923.16;5094293;28;19957;-76
2021/08/23 07:31:51;;;;;;;;;;;;;;;15.76;87.00;96920.25;5092883;28;19967;-76
2021/08/23 07:34:20;;;;;;;;;;;;;;;15.81;87.28;96920.38;5094080;28;19960;-76
2021/08/23 07:36:49;;;;;;;;;;;;;;;15.85;87.50;96922.53;5092960;28;20044;-76
2021/08/23 07:39:15;;;;;;;;;;;;;;;15.87;86.52;96918.59;5094053;28;19952;-76
2021/08/23 07:41:41;;;;;;;;;;;;;;;15.92;88.17;96926.63;5093745;28;20340;-76
2021/08/23 07:44:07;;;;;;;;;;;;;;;15.93;86.64;96917.63;5094273;28;19981;-76
2021/08/23 07:46:33;;;;;;;;;;;;;;;16.06;87.08;96915.72;5092762;28;19963;-76
2021/08/23 07:48:58;;;;;;;;;;;;;;;16.23;86.86;96919.97;5093897;28;19954;-76
2021/08/23 07:51:24;;;;;;;;;;;;;;;16.37;84.74;96922.25;5093234;28;19967;-76
2021/08/23 07:53:50;;;;;;;;;;;;;;;16.44;83.67;96918.41;5093210;28;19954;-76
2021/08/23 07:56:16;;;;;;;;;;;;;;;16.48;85.30;96921.34;5093742;28;19971;-76
2021/08/23 07:58:42;;;;;;;;;;;;;;;16.50;83.84;96913.97;5093929;28;20410;-76
2021/08/23 08:01:08;;;;;;;;;;;;;;;16.60;84.21;96915.97;5092950;28;19960;-76
2021/08/23 08:03:38;;;;;;;;;;;;;;;16.92;82.57;96918.78;5093216;28;19972;-76
2021/08/23 08:06:04;;;;;;;;;;;;;;;17.38;79.26;96916.63;5094004;28;19953;-76
2021/08/23 08:08:29;;;;;;;;;;;;;;;17.72;79.55;96912.97;5093693;28;19959;-76
2021/08/23 08:10:56;;;;;;;;;;;;;;;17.85;80.26;96916.06;5093762;28;19955;-76
2021/08/23 08:13:23;;;;;;;;;;;;;;;17.85;78.28;96921.38;5093923;28;19953;-76
2021/08/23 08:15:49;;;;;;;;;;;;;;;17.90;80.52;96925.13;5093861;28;19956;-76
2021/08/23 08:18:15;;;;;;;;;;;;;;;17.96;79.61;96922.25;5093580;28;19962;-76
2021/08/23 08:20:41;;;;;;;;;;;;;;;18.15;78.64;96924.53;5093663;28;19960;-77
2021/08/23 08:23:07;;;;;;;;;;;;;;;18.40;76.72;96923.91;5093380;28;19969;-76
2021/08/23 08:25:32;;;;;;;;;;;;;;;18.51;75.25;96917.56;5093127;28;20500;-76
2021/08/23 08:27:58;;;;;;;;;;;;;;;18.65;72.27;96918.72;5094102;28;20312;-76
2021/08/23 08:30:24;;;;;;;;;;;;;;;18.59;71.37;96919.75;5093571;28;19984;-77
2021/08/23 08:32:50;;;;;;;;;;;;;;;18.84;73.18;96918.31;5093508;28;19967;-76
2021/08/23 08:35:16;;;;;;;;;;;;;;;19.16;70.19;96917.38;5093918;28;19961;-76
2021/08/23 08:37:42;;;;;;;;;;;;;;;19.41;70.40;96911.31;5093418;28;19958;-76
2021/08/23 08:40:10;;;;;;;;;;;;;;;19.41;70.94;96914.78;5093743;28;19966;-76
2021/08/23 08:42:36;;;;;;;;;;;;;;;19.16;69.98;96915.50;5095504;28;19954;-76
2021/08/23 08:45:02;;;;;;;;;;;;;;;18.96;72.00;96928.72;5095686;28;19966;-76
2021/08/23 08:47:29;;;;;;;;;;;;;;;18.76;73.48;96922.22;5096945;28;19958;-76
2021/08/23 08:49:57;;;;;;;;;;;;;;;18.58;72.82;96920.81;5097436;28;19962;-76
2021/08/23 08:52:24;;;;;;;;;;;;;;;18.37;71.73;96924.38;5096419;28;19958;-76
2021/08/23 08:54:50;;;;;;;;;;;;;;;18.18;74.53;96929.31;5097270;28;19984;-77
2021/08/23 08:57:15;;;;;;;;;;;;;;;18.02;74.27;96921.25;5097109;28;20413;-76
2021/08/23 08:59:42;;;;;;;;;;;;;;;17.96;75.84;96918.81;5097404;28;20014;-74
2021/08/23 09:02:08;;;;;;;;;;;;;;;17.99;74.04;96913.78;5097033;28;19977;-76
2021/08/23 09:04:38;;;;;;;;;;;;;;;18.15;73.82;96919.22;5096798;28;20322;-75
2021/08/23 09:07:05;;;;;;;;;;;;;;;18.44;70.25;96912.50;5096168;28;19962;-75
2021/08/23 09:09:31;;;;;;;;;;;;;;;18.83;73.03;96927.34;5096883;28;19957;-76
2021/08/23 09:12:02;;;;;;;;;;;;;;;19.15;69.63;96924.56;5096261;28;19957;-74
2021/08/23 09:14:28;;;;;;;;;;;;;;;19.47;70.27;96920.91;5096116;28;19952;-75
2021/08/23 09:17:02;;;;;;;;;;;;;;;19.67;68.67;96926.28;5096384;28;19986;-75
2021/08/23 09:19:28;;;;;;;;;;;;;;;19.68;69.73;96919.88;5096801;28;19955;-75
2021/08/23 09:22:03;;;;;;;;;;;;;;;19.64;68.15;96923.34;5096978;28;19965;-75
2021/08/23 09:24:32;;;;;;;;;;;;;;;19.58;63.45;96895.13;5096326;28;19972;-75
2021/08/23 09:27:06;;;;;;;;;;;;;;;19.33;67.14;96922.47;5096774;28;19967;-75
2021/08/23 09:29:47;;;;;;;;;;;;;;;18.97;67.78;96935.66;5096484;28;19957;-74
2021/08/23 09:32:14;;;;;;;;;;;;;;;18.76;67.40;96929.41;5096659;28;19958;-75
2021/08/23 09:34:43;;;;;;;;;;;;;;;18.60;70.61;96949.75;5096558;28;19972;-74
2021/08/23 09:37:14;;;;;;;;;;;;;;;18.50;71.27;96939.91;5096291;28;20432;-75
2021/08/23 09:39:39;;;;;;;;;;;;;;;18.36;69.41;96936.09;5096627;28;19956;-75
2021/08/23 09:42:06;;;;;;;;;;;;;;;18.24;71.20;96941.56;5096020;28;20431;-75
2021/08/23 09:44:38;;;;;;;;;;;;;;;18.17;71.86;96938.34;5096039;28;19976;-75
2021/08/23 09:47:04;;;;;;;;;;;;;;;18.16;71.67;96931.41;5095399;28;19968;-74
2021/08/23 09:49:34;;;;;;;;;;;;;;;18.18;73.29;96938.06;5095489;28;19954;-74
2021/08/23 09:52:00;;;;;;;;;;;;;;;18.20;70.91;96935.94;5095814;28;19959;-74
2021/08/23 09:54:26;;;;;;;;;;;;;;;18.20;69.31;96932.50;5095196;28;19970;-74
2021/08/23 09:56:55;;;;;;;;;;;;;;;18.22;71.71;96938.38;5095113;28;19961;-75
2021/08/23 09:59:29;;;;;;;;;;;;;;;18.28;72.06;96950.63;5095974;28;19963;-74
2021/08/23 10:01:56;;;;;;;;;;;;;;;18.28;71.45;96944.53;5095740;28;19970;-75
2021/08/23 10:04:22;;;;;;;;;;;;;;;18.37;69.23;96941.16;5095999;28;19966;-75
2021/08/23 10:06:49;;;;;;;;;;;;;;;18.49;71.99;96942.81;5095125;28;19960;-75
2021/08/23 10:09:19;;;;;;;;;;;;;;;18.62;71.10;96943.13;5095495;28;19971;-75
2021/08/23 10:11:46;;;;;;;;;;;;;;;18.65;69.07;96934.66;5096153;28;19959;-74
2021/08/23 10:14:12;;;;;;;;;;;;;;;18.64;71.05;96943.69;5095687;28;19986;-74
2021/08/23 10:16:37;;;;;;;;;;;;;;;18.61;71.29;96943.41;5095984;28;20045;-75
2021/08/23 10:19:04;;;;;;;;;;;;;;;18.55;70.48;96944.44;5094693;28;19969;-75
2021/08/23 10:21:31;;;;;;;;;;;;;;;18.52;72.26;96940.44;5095460;28;19957;-75
2021/08/23 10:23:57;;;;;;;;;;;;;;;18.52;71.71;96939.63;5094910;28;19977;-75
2021/08/23 10:26:23;;;;;;;;;;;;;;;18.53;71.22;96930.63;5095340;28;19975;-75
2021/08/23 10:28:49;;;;;;;;;;;;;;;18.53;71.74;96930.63;5095475;28;20340;-74
2021/08/23 10:31:17;;;;;;;;;;;;;;;18.57;71.75;96929.03;5094958;28;19996;-74
2021/08/23 10:33:44;;;;;;;;;;;;;;;18.59;71.53;96937.56;5093180;28;19959;-75
2021/08/23 10:36:16;;;;;;;;;;;;;;;18.62;71.90;96937.03;5095245;28;19958;-75
2021/08/23 10:38:43;;;;;;;;;;;;;;;18.65;71.93;96934.66;5095189;28;19956;-75
2021/08/23 10:41:14;;;;;;;;;;;;;;;18.64;71.55;96930.41;5094952;28;19962;-75
2021/08/23 10:43:45;;;;;;;;;;;;;;;18.63;70.11;96936.78;5094612;28;19957;-74
2021/08/23 10:46:21;;;;;;;;;;;;;;;18.69;69.74;96931.47;5094880;28;19961;-74
2021/08/23 10:48:47;;;;;;;;;;;;;;;18.75;69.63;96931.28;5094815;28;19961;-75
2021/08/23 10:51:25;;;;;;;;;;;;;;;18.78;69.90;96928.13;5094719;28;19961;-74
2021/08/23 10:53:51;;;;;;;;;;;;;;;18.78;71.51;96928.13;5081666;28;20411;-74
2021/08/23 10:56:18;;;;;;;;;;;;;;;18.75;72.13;96927.78;5094429;28;19965;-74
2021/08/23 10:58:47;;;;;;;;;;;;;;;18.66;69.79;96917.66;5094223;28;19969;-74
2021/08/23 11:01:23;;;;;;;;;;;;;;;18.65;68.70;96921.38;5094831;28;20344;-75
2021/08/23 11:04:02;;;;;;;;;;;;;;;18.72;71.16;96931.78;5094203;28;19966;-74
2021/08/23 11:06:29;;;;;;;;;;;;;;;18.80;70.67;96930.53;5094305;28;20334;-75
2021/08/23 11:09:09;;;;;;;;;;;;;;;18.85;68.97;96926.00;5094180;28;19959;-74
2021/08/23 11:11:36;;;;;;;;;;;;;;;18.92;66.70;96919.66;5084883;28;19968;-75
2021/08/23 11:14:03;;;;;;;;;;;;;;;19.21;65.61;96910.22;5093243;28;19962;-74
2021/08/23 11:16:29;;;;;;;;;;;;;;;19.45;65.40;96904.41;5094883;28;19960;-74
2021/08/23 11:18:55;;;;;;;;;;;;;;;19.62;68.62;96925.47;5094849;28;19983;-74
2021/08/23 11:21:24;;;;;;;;;;;;;;;19.64;65.04;96900.19;5093054;28;19959;-74
2021/08/23 11:23:50;;;;;;;;;;;;;;;19.62;65.11;96902.31;5093647;28;20455;-74
2021/08/23 11:26:24;;;;;;;;;;;;;;;19.50;67.23;96909.75;5094210;28;20445;-74
2021/08/23 11:28:50;;;;;;;;;;;;;;;19.45;68.66;96912.41;5094580;28;19983;-74
2021/08/23 11:31:20;;;;;;;;;;;;;;;19.57;67.67;96902.31;5094121;28;20415;-74
2021/08/23 11:33:46;;;;;;;;;;;;;;;19.73;67.01;96907.66;5094583;28;19966;-74
2021/08/23 11:36:18;;;;;;;;;;;;;;;19.91;66.92;96904.50;5093407;28;21775;-74
2021/08/23 11:38:44;;;;;;;;;;;;;;;20.12;64.16;96883.19;5093977;28;19970;-74
2021/08/23 11:41:11;;;;;;;;;;;;;;;20.44;66.89;96906.81;5093736;28;20385;-74
2021/08/23 11:43:37;;;;;;;;;;;;;;;20.57;67.02;96900.13;5094253;28;20401;-74
2021/08/23 11:46:04;;;;;;;;;;;;;;;20.54;64.49;96888.16;5093904;28;20052;-74
2021/08/23 11:48:30;;;;;;;;;;;;;;;20.61;65.56;96904.69;5094128;28;19971;-74
2021/08/23 11:50:56;;;;;;;;;;;;;;;20.72;67.53;96909.97;5093905;28;19970;-74
2021/08/23 11:53:24;;;;;;;;;;;;;;;20.60;65.36;96903.09;5093159;28;19965;-74
2021/08/23 11:55:50;;;;;;;;;;;;;;;20.44;66.33;96907.63;5093692;28;20414;-74
2021/08/23 11:58:19;;;;;;;;;;;;;;;20.21;65.46;96898.34;5094264;28;19972;-74
2021/08/23 12:00:58;;;;;;;;;;;;;;;19.99;68.42;96911.13;5093917;28;20426;-74
2021/08/23 12:03:24;;;;;;;;;;;;;;;19.77;70.23;96911.41;5080542;28;20413;-74
2021/08/23 12:05:49;;;;;;;;;;;;;;;19.63;70.84;96911.91;5093736;28;19982;-74
2021/08/23 12:08:26;;;;;;;;;;;;;;;19.54;71.47;96916.13;5093490;28;19958;-75
2021/08/23 12:10:57;;;;;;;;;;;;;;;19.50;72.26;96915.06;5093413;28;19963;-73
2021/08/23 12:13:24;;;;;;;;;;;;;;;19.53;73.20;96911.06;5093803;28;19955;-74
2021/08/23 12:15:55;;;;;;;;;;;;;;;19.53;73.09;96917.22;5093839;28;20030;-74
2021/08/23 12:18:37;;;;;;;;;;;;;;;19.53;73.37;96911.06;5096527;28;19966;-74
2021/08/23 12:21:03;;;;;;;;;;;;;;;19.51;73.02;96910.53;5097028;28;19959;-74
2021/08/23 12:23:29;;;;;;;;;;;;;;;19.45;72.07;96915.06;5097780;28;19956;-74
2021/08/23 12:26:05;;;;;;;;;;;;;;;19.35;73.30;96918.47;5083709;28;19974;-74
2021/08/23 12:28:31;;;;;;;;;;;;;;;19.29;72.49;96921.41;5097830;28;19953;-74
2021/08/23 12:31:05;;;;;;;;;;;;;;;19.19;72.25;96911.53;5097540;28;20008;-76
2021/08/23 12:33:31;;;;;;;;;;;;;;;18.99;70.80;96909.59;5097876;28;19963;-74
2021/08/23 12:35:57;;;;;;;;;;;;;;;18.88;73.33;96924.72;5097618;28;20309;-74
2021/08/23 12:38:23;;;;;;;;;;;;;;;18.91;74.21;96921.53;5097351;28;19966;-74
2021/08/23 12:40:49;;;;;;;;;;;;;;;18.96;74.33;96926.88;5097305;28;19965;-74
2021/08/23 12:43:15;;;;;;;;;;;;;;;19.08;74.16;96915.22;5097144;28;20009;-73
2021/08/23 12:45:41;;;;;;;;;;;;;;;19.46;73.84;96916.66;5097046;28;19967;-74
2021/08/23 12:48:07;;;;;;;;;;;;;;;19.90;69.85;96908.19;5097932;28;20470;-74